Time;durP1;ratioP1;P1;durP2;ratioP2;P2;SDS_P1;SDS_P2;PMS_P1;PMS_P2;Temp;Humidity;BMP_temperature;BMP_pressure;BME280_temperature;BME280_humidity;BME280_pressure;Samples;Min_cycle;Max_cycle;Signal;HPM_P1;HPM_P2
2021/08/10 00:01:27;;;;;;;8.88;5.72;;;;;;;19.22;95.66;99593.16;1740683;82;21023;-71
2021/08/10 00:03:54;;;;;;;8.98;6.22;;;;;;;19.19;95.86;99593.31;1740706;82;21107;-70
2021/08/10 00:06:21;;;;;;;6.45;5.50;;;;;;;19.16;96.27;99587.09;1740539;82;20887;-68
2021/08/10 00:08:49;;;;;;;9.85;6.20;;;;;;;19.11;96.44;99587.41;1740682;82;20856;-68
2021/08/10 00:11:17;;;;;;;7.12;5.85;;;;;;;19.05;96.61;99587.53;1740642;82;20962;-69
2021/08/10 00:13:44;;;;;;;6.25;4.90;;;;;;;19.00;97.10;99591.42;1740513;81;20983;-68
2021/08/10 00:16:10;;;;;;;6.95;5.60;;;;;;;19.01;97.35;99593.03;1740625;82;23304;-68
2021/08/10 00:18:38;;;;;;;6.53;5.10;;;;;;;18.99;97.84;99587.63;1740580;82;20911;-68
2021/08/10 00:21:05;;;;;;;6.65;5.30;;;;;;;19.00;97.85;99593.41;1740726;82;21035;-68
2021/08/10 00:23:31;;;;;;;6.25;5.35;;;;;;;18.98;97.77;99596.55;1730484;82;20942;-69
2021/08/10 00:25:58;;;;;;;10.35;5.50;;;;;;;18.97;97.99;99596.34;1727843;83;20843;-68
2021/08/10 00:28:25;;;;;;;6.22;5.62;;;;;;;18.96;98.19;99591.95;1727850;83;21103;-69
2021/08/10 00:30:53;;;;;;;7.33;5.72;;;;;;;18.95;97.98;99597.30;1699452;83;20969;-69
2021/08/10 00:33:20;;;;;;;8.30;6.00;;;;;;;18.93;98.41;99598.25;1727924;83;20905;-69
2021/08/10 00:35:47;;;;;;;6.33;5.72;;;;;;;18.92;98.47;99595.84;1728119;83;20925;-69
2021/08/10 00:38:13;;;;;;;8.43;6.15;;;;;;;18.87;98.67;99591.97;1699308;83;21089;-68
2021/08/10 00:40:40;;;;;;;9.55;6.55;;;;;;;18.84;99.08;99596.88;1727794;83;21081;-68
2021/08/10 00:43:39;;;;;;;7.78;5.87;;;;;;;18.83;99.26;99600.84;1727726;83;20934;-68
2021/08/10 00:46:11;;;;;;;8.80;6.62;;;;;;;18.81;99.70;99598.42;1726346;83;20966;-68
2021/08/10 00:48:40;;;;;;;7.03;5.58;;;;;;;18.79;99.71;99598.80;1727957;83;21393;-68
2021/08/10 00:51:11;;;;;;;7.05;6.05;;;;;;;18.78;99.99;99593.60;1728085;83;21438;-69
2021/08/10 00:53:38;;;;;;;8.93;5.97;;;;;;;18.79;99.94;99595.21;1727777;83;21085;-69
2021/08/10 00:56:06;;;;;;;6.90;6.00;;;;;;;18.77;99.95;99592.80;1727970;83;21477;-69
2021/08/10 00:58:35;;;;;;;6.37;5.78;;;;;;;18.76;100.00;99589.80;1727810;83;21039;-69
2021/08/10 01:01:03;;;;;;;6.25;5.62;;;;;;;18.75;100.00;99591.56;1728192;83;20947;-69
2021/08/10 01:03:30;;;;;;;9.10;6.55;;;;;;;18.75;100.00;99595.73;1728164;83;20942;-69
2021/08/10 01:05:57;;;;;;;7.78;6.90;;;;;;;18.70;100.00;99586.30;1727967;83;21777;-69
2021/08/10 01:09:03;;;;;;;7.22;6.17;;;;;;;18.67;100.00;99593.98;1727901;83;21509;-69
2021/08/10 01:11:45;;;;;;;7.62;6.17;;;;;;;18.65;100.00;99584.63;1727870;83;21429;-67
2021/08/10 01:14:48;;;;;;;8.15;6.90;;;;;;;18.62;100.00;99587.34;1727617;83;21429;-67
2021/08/10 01:17:25;;;;;;;11.95;6.72;;;;;;;18.55;100.00;99584.39;1728090;83;21472;-66
2021/08/10 01:20:04;;;;;;;7.30;6.60;;;;;;;18.53;100.00;99585.34;1698846;83;21084;-66
2021/08/10 01:22:32;;;;;;;10.10;6.83;;;;;;;18.55;100.00;99578.25;1717118;83;20869;-67
2021/08/10 01:25:24;;;;;;;9.03;6.85;;;;;;;18.55;100.00;99585.78;1727816;82;20897;-67
2021/08/10 01:28:08;;;;;;;7.67;5.97;;;;;;;18.51;100.00;99582.13;1727779;83;20890;-67
2021/08/10 01:30:49;;;;;;;9.30;6.40;;;;;;;18.46;100.00;99583.27;1727794;83;21532;-67
2021/08/10 01:33:18;;;;;;;7.58;6.65;;;;;;;18.42;100.00;99580.41;1727591;83;21412;-67
2021/08/10 01:35:46;;;;;;;11.22;6.50;;;;;;;18.40;100.00;99578.59;1727796;83;21469;-67
2021/08/10 01:38:14;;;;;;;10.10;7.10;;;;;;;18.36;100.00;99577.71;1727827;83;20962;-67
2021/08/10 01:40:40;;;;;;;9.33;6.00;;;;;;;18.33;100.00;99581.22;1727810;83;21456;-67
2021/08/10 01:43:07;;;;;;;6.65;6.00;;;;;;;18.28;100.00;99585.69;1698367;83;21477;-67
2021/08/10 01:45:37;;;;;;;9.73;6.22;;;;;;;18.25;100.00;99579.47;1695892;83;21465;-68
2021/08/10 01:48:08;;;;;;;7.03;5.80;;;;;;;18.24;100.00;99582.61;1727748;83;21533;-67
2021/08/10 01:50:36;;;;;;;10.08;6.15;;;;;;;18.24;100.00;99573.69;1728142;83;21429;-67
2021/08/10 01:53:07;;;;;;;7.80;5.72;;;;;;;18.22;100.00;99575.23;1727345;83;20981;-68
2021/08/10 01:55:37;;;;;;;9.05;6.40;;;;;;;18.21;100.00;99576.39;1727896;83;20993;-68
2021/08/10 01:58:08;;;;;;;12.47;5.97;;;;;;;18.20;100.00;99570.03;1726639;83;21125;-69
2021/08/10 02:00:35;;;;;;;8.80;6.50;;;;;;;18.18;100.00;99580.70;1664982;84;21014;-69
2021/08/10 02:03:06;;;;;;;19.07;7.05;;;;;;;18.13;100.00;99579.61;1727657;83;20850;-69
2021/08/10 02:05:35;;;;;;;7.83;5.80;;;;;;;18.07;100.00;99580.48;1727728;83;21049;-69
2021/08/10 02:08:04;;;;;;;9.75;6.35;;;;;;;18.02;100.00;99582.75;1728237;83;21953;-69
2021/08/10 02:10:34;;;;;;;8.75;7.55;;;;;;;17.98;100.00;99584.06;1727985;83;21768;-69
2021/08/10 02:13:02;;;;;;;9.73;6.85;;;;;;;17.97;100.00;99592.75;1727541;83;20882;-68
2021/08/10 02:15:30;;;;;;;10.15;6.78;;;;;;;17.93;100.00;99593.27;1712158;83;21387;-69
2021/08/10 02:17:58;;;;;;;8.20;6.78;;;;;;;17.87;100.00;99588.61;1712214;83;20923;-67
2021/08/10 02:20:35;;;;;;;7.42;6.28;;;;;;;17.85;100.00;99588.75;1711426;83;20939;-69
2021/08/10 02:23:02;;;;;;;9.33;6.28;;;;;;;17.85;100.00;99595.69;1713660;83;21130;-69
2021/08/10 02:25:28;;;;;;;7.37;6.60;;;;;;;17.80;100.00;99596.20;1713563;83;21018;-69
2021/08/10 02:27:58;;;;;;;7.75;6.83;;;;;;;17.77;100.00;99595.53;1687126;83;20891;-69
2021/08/10 02:30:28;;;;;;;9.00;6.62;;;;;;;17.74;100.00;99592.09;1675012;85;20903;-69
2021/08/10 02:32:55;;;;;;;8.05;6.62;;;;;;;17.70;100.00;99595.95;1659503;85;20955;-67
2021/08/10 02:35:26;;;;;;;7.92;6.60;;;;;;;17.67;100.00;99598.06;1674875;85;21832;-67
2021/08/10 02:37:53;;;;;;;10.28;6.50;;;;;;;17.64;100.00;99585.68;1694415;83;20871;-67
2021/08/10 02:40:22;;;;;;;8.90;6.08;;;;;;;17.64;100.00;99579.32;1713607;83;20887;-67
2021/08/10 02:42:52;;;;;;;13.65;7.40;;;;;;;17.63;100.00;99588.81;1712499;83;20926;-67
2021/08/10 02:45:20;;;;;;;10.32;7.20;;;;;;;17.61;100.00;99578.66;1713728;83;20851;-67
2021/08/10 02:47:55;;;;;;;8.55;7.20;;;;;;;17.59;100.00;99585.95;1713517;83;21536;-67
2021/08/10 02:50:25;;;;;;;7.55;6.60;;;;;;;17.57;100.00;99586.91;1713713;83;20914;-67
2021/08/10 02:52:54;;;;;;;8.05;6.75;;;;;;;17.54;100.00;99590.98;1713601;83;21005;-67
2021/08/10 02:55:22;;;;;;;11.18;7.08;;;;;;;17.50;100.00;99596.45;1713594;83;21482;-67
2021/08/10 02:58:07;;;;;;;7.17;5.53;;;;;;;17.48;100.00;99597.39;1713736;83;20890;-67
2021/08/10 03:00:40;;;;;;;10.88;6.65;;;;;;;17.44;100.00;99586.20;1713614;83;21043;-67
2021/08/10 03:03:10;;;;;;;;;;;;;;;17.41;100.00;99598.61;1715918;83;20974;-67
2021/08/10 03:05:38;;;;;;;9.20;6.72;;;;;;;17.41;100.00;99595.25;1713697;83;20076;-67
2021/08/10 03:08:08;;;;;;;7.92;5.72;;;;;;;17.40;100.00;99592.25;1713676;83;20927;-67
2021/08/10 03:10:37;;;;;;;10.63;5.70;;;;;;;17.44;100.00;99592.34;1713829;83;21477;-67
2021/08/10 03:13:07;;;;;;;7.85;6.20;;;;;;;17.44;100.00;99591.76;1713556;83;21203;-67
2021/08/10 03:15:38;;;;;;;7.33;6.10;;;;;;;17.47;100.00;99595.78;1713350;83;21484;-71
2021/08/10 03:18:11;;;;;;;9.05;5.95;;;;;;;17.47;100.00;99597.17;1713485;83;21472;-70
2021/08/10 03:20:41;;;;;;;9.33;5.55;;;;;;;17.44;100.00;99597.31;1713706;83;20847;-69
2021/08/10 03:23:08;;;;;;;8.90;6.33;;;;;;;17.42;100.00;99594.67;1713531;83;20879;-69
2021/08/10 03:25:35;;;;;;;7.22;5.85;;;;;;;17.39;100.00;99597.58;1713402;83;21167;-69
2021/08/10 03:28:03;;;;;;;9.58;6.40;;;;;;;17.38;100.00;99602.91;1713379;83;20926;-68
2021/08/10 03:30:30;;;;;;;6.80;5.90;;;;;;;17.41;100.00;99594.45;1713508;83;21462;-69
2021/08/10 03:32:57;;;;;;;7.55;6.00;;;;;;;17.44;100.00;99598.70;1713495;83;20962;-69
2021/08/10 03:35:25;;;;;;;9.68;6.90;;;;;;;17.46;100.00;99601.11;1713500;83;20966;-69
2021/08/10 03:37:52;;;;;;;14.10;6.00;;;;;;;17.43;100.00;99606.80;1713561;83;21149;-69
2021/08/10 03:40:20;;;;;;;6.22;5.28;;;;;;;17.43;100.00;99600.44;1689852;83;21010;-68
2021/08/10 03:42:46;;;;;;;9.70;6.12;;;;;;;17.43;100.00;99598.47;1674839;85;20895;-68
2021/08/10 03:45:13;;;;;;;8.35;5.45;;;;;;;17.43;100.00;99599.05;1675057;85;20936;-68
2021/08/10 03:47:42;;;;;;;6.37;5.72;;;;;;;17.43;100.00;99592.12;1674760;85;20895;-68
2021/08/10 03:50:09;;;;;;;7.30;6.08;;;;;;;17.44;100.00;99597.89;1674797;85;21008;-68
2021/08/10 03:52:36;;;;;;;7.50;6.37;;;;;;;17.45;100.00;99596.73;1674646;85;20987;-67
2021/08/10 03:55:08;;;;;;;8.80;6.42;;;;;;;17.46;100.00;99599.14;1674753;85;20932;-66
2021/08/10 03:57:34;;;;;;;10.40;5.72;;;;;;;17.47;100.00;99599.36;1674573;85;20991;-66
2021/08/10 04:00:04;;;;;;;8.85;6.35;;;;;;;17.52;100.00;99601.64;1674845;85;20903;-66
2021/08/10 04:02:34;;;;;;;9.03;5.97;;;;;;;17.58;100.00;99601.00;1674381;85;21756;-67
2021/08/10 04:05:01;;;;;;;6.55;5.72;;;;;;;17.65;100.00;99598.98;1674710;85;20892;-68
2021/08/10 04:07:30;;;;;;;7.50;5.90;;;;;;;17.72;100.00;99596.39;1674805;85;21016;-70
2021/08/10 04:09:59;;;;;;;7.95;5.47;;;;;;;17.77;100.00;99594.73;1675074;85;21199;-71
2021/08/10 04:12:26;;;;;;;6.53;5.85;;;;;;;17.80;100.00;99592.03;1674746;85;20947;-71
2021/08/10 04:14:53;;;;;;;6.10;5.50;;;;;;;17.83;100.00;99592.47;1679299;85;21417;-68
2021/08/10 04:17:26;;;;;;;7.05;5.90;;;;;;;17.86;100.00;99583.42;1683960;85;21428;-68
2021/08/10 04:19:57;;;;;;;7.75;5.65;;;;;;;17.92;100.00;99588.87;1658912;85;21444;-69
2021/08/10 04:22:24;;;;;;;7.58;5.80;;;;;;;17.97;100.00;99585.23;1684091;85;20979;-69
2021/08/10 04:24:50;;;;;;;8.00;5.70;;;;;;;18.02;100.00;99584.14;1684049;85;20941;-69
2021/08/10 04:27:17;;;;;;;7.90;6.10;;;;;;;18.03;100.00;99587.94;1684006;85;21065;-69
2021/08/10 04:29:45;;;;;;;7.95;5.97;;;;;;;18.04;100.00;99586.77;1684068;84;21559;-69
2021/08/10 04:32:13;;;;;;;7.58;5.80;;;;;;;18.07;100.00;99592.98;1684002;85;20949;-69
2021/08/10 04:34:40;;;;;;;9.98;5.67;;;;;;;18.11;100.00;99589.70;1684182;85;21496;-69
2021/08/10 04:37:07;;;;;;;6.45;5.85;;;;;;;18.18;99.99;99591.83;1684072;85;20956;-68
2021/08/10 04:39:36;;;;;;;8.30;5.35;;;;;;;18.21;99.21;99588.91;1683982;84;21156;-68
2021/08/10 04:42:04;;;;;;;8.05;5.97;;;;;;;18.22;98.85;99584.37;1695225;83;21016;-69
2021/08/10 04:44:31;;;;;;;6.85;5.37;;;;;;;18.25;99.41;99582.83;1723200;83;20893;-69
2021/08/10 04:46:58;;;;;;;8.80;6.28;;;;;;;18.30;98.96;99582.54;1708984;81;21480;-69
2021/08/10 04:49:26;;;;;;;9.20;5.70;;;;;;;18.32;98.61;99590.73;1693879;81;21047;-67
2021/08/10 04:51:54;;;;;;;10.32;5.60;;;;;;;18.36;98.79;99588.02;1699760;83;21227;-67
2021/08/10 04:54:22;;;;;;;8.53;6.00;;;;;;;18.43;98.64;99584.00;1683996;85;20932;-68
2021/08/10 04:56:49;;;;;;;7.37;5.70;;;;;;;18.52;98.24;99580.38;1684203;84;21453;-68
2021/08/10 04:59:17;;;;;;;7.17;5.85;;;;;;;18.58;97.79;99582.27;1685487;83;20972;-67
2021/08/10 05:01:44;;;;;;;9.05;5.70;;;;;;;18.64;97.35;99582.21;1696845;83;21007;-69
2021/08/10 05:04:11;;;;;;;7.83;5.80;;;;;;;18.72;97.21;99578.39;1723227;83;21134;-69
2021/08/10 05:06:40;;;;;;;11.05;5.87;;;;;;;18.82;97.32;99579.17;1723446;83;20921;-69
2021/08/10 05:09:06;;;;;;;6.33;5.72;;;;;;;18.91;96.87;99574.17;1723426;83;20941;-68
2021/08/10 05:11:34;;;;;;;7.12;5.47;;;;;;;19.03;96.31;99575.97;1723315;83;20877;-70
2021/08/10 05:14:00;;;;;;;9.50;5.78;;;;;;;19.14;95.77;99576.92;1723112;83;20958;-70
2021/08/10 05:16:28;;;;;;;6.65;5.12;;;;;;;19.25;95.46;99572.93;1727623;83;21465;-69
2021/08/10 05:18:56;;;;;;;14.85;6.20;;;;;;;19.32;95.00;99578.61;1707417;81;20899;-69
2021/08/10 05:21:24;;;;;;;9.90;5.72;;;;;;;19.41;94.76;99574.98;1688152;85;21021;-69
2021/08/10 05:23:53;;;;;;;7.47;5.47;;;;;;;19.51;94.00;99575.77;1723934;83;20921;-71
2021/08/10 05:26:20;;;;;;;7.80;5.60;;;;;;;19.61;93.32;99572.34;1727829;83;20839;-69
2021/08/10 05:28:46;;;;;;;10.63;5.37;;;;;;;19.69;93.48;99571.82;1727838;83;22048;-70
2021/08/10 05:31:16;;;;;;;7.92;5.35;;;;;;;19.78;92.76;99571.76;1734846;82;20984;-70
2021/08/10 05:33:43;;;;;;;8.50;5.83;;;;;;;19.84;91.35;99575.02;1734850;82;20883;-70
2021/08/10 05:36:10;;;;;;;6.40;5.12;;;;;;;19.87;91.23;99572.08;1735666;82;20858;-71
2021/08/10 05:38:37;;;;;;;5.85;4.90;;;;;;;19.94;90.73;99572.17;1729783;82;20886;-67
2021/08/10 05:41:03;;;;;;;6.42;5.00;;;;;;;19.98;90.54;99570.23;1727852;83;21147;-69
2021/08/10 05:43:32;;;;;;;5.83;5.17;;;;;;;20.02;89.43;99571.09;1727897;83;20872;-69
2021/08/10 05:46:01;;;;;;;6.42;5.45;;;;;;;20.09;88.91;99573.38;1727890;83;20874;-69
2021/08/10 05:48:27;;;;;;;6.75;5.17;;;;;;;20.17;88.78;99575.66;1728850;82;20969;-70
2021/08/10 05:50:58;;;;;;;9.40;5.00;;;;;;;20.27;88.10;99573.56;1743034;82;21487;-70
2021/08/10 05:53:25;;;;;;;8.78;4.97;;;;;;;20.39;88.33;99572.54;1742879;82;21103;-69
2021/08/10 05:55:51;;;;;;;6.08;4.80;;;;;;;20.53;87.92;99575.49;1743232;82;20925;-67
2021/08/10 05:58:19;;;;;;;5.08;4.58;;;;;;;20.65;87.10;99572.44;1742993;82;20924;-68
2021/08/10 06:00:46;;;;;;;8.13;4.97;;;;;;;20.79;87.00;99574.58;1741851;82;22263;-76
2021/08/10 06:03:13;;;;;;;6.45;5.03;;;;;;;20.91;86.36;99575.66;1726582;83;21033;-68
2021/08/10 06:05:40;;;;;;;5.28;4.60;;;;;;;21.02;85.05;99576.56;1726699;83;21121;-68
2021/08/10 06:08:07;;;;;;;5.30;4.80;;;;;;;21.14;84.52;99570.48;1726505;83;21601;-68
2021/08/10 06:10:42;;;;;;;8.50;5.37;;;;;;;21.27;84.87;99569.03;1727019;83;21517;-68
2021/08/10 06:13:10;;;;;;;6.17;4.50;;;;;;;21.38;82.59;99573.48;1726671;83;21026;-67
2021/08/10 06:15:39;;;;;;;8.30;5.05;;;;;;;21.43;81.37;99565.33;1719618;83;21046;-69
2021/08/10 06:18:06;;;;;;;7.05;5.10;;;;;;;21.51;82.19;99570.38;1713171;83;21164;-68
2021/08/10 06:20:34;;;;;;;6.90;4.75;;;;;;;21.60;81.32;99564.66;1713279;83;20946;-68
2021/08/10 06:23:01;;;;;;;8.70;4.95;;;;;;;21.68;81.04;99571.09;1712707;83;20946;-68
2021/08/10 06:25:32;;;;;;;7.25;5.03;;;;;;;21.76;80.38;99569.95;1712904;83;20934;-68
2021/08/10 06:27:58;;;;;;;9.30;4.97;;;;;;;21.81;80.23;99563.98;1713054;83;20922;-68
2021/08/10 06:30:26;;;;;;;5.97;4.78;;;;;;;21.89;78.68;99561.44;1713377;83;21102;-68
2021/08/10 06:32:55;;;;;;;8.20;4.60;;;;;;;21.98;79.29;99557.66;1713199;83;20966;-69
2021/08/10 06:35:23;;;;;;;6.15;4.80;;;;;;;22.10;78.24;99562.73;1713356;83;20930;-69
2021/08/10 06:37:51;;;;;;;6.30;4.25;;;;;;;22.17;76.95;99557.98;1713473;83;21442;-69
2021/08/10 06:40:20;;;;;;;5.53;3.98;;;;;;;22.22;75.65;99557.60;1713293;83;20903;-69
2021/08/10 06:42:48;;;;;;;11.93;4.55;;;;;;;22.27;75.57;99559.22;1713344;83;21101;-67
2021/08/10 06:45:16;;;;;;;6.35;4.37;;;;;;;22.33;75.75;99550.65;1713485;83;20927;-66
2021/08/10 06:47:44;;;;;;;7.53;5.08;;;;;;;22.44;75.15;99555.68;1713282;83;20938;-67
2021/08/10 06:50:13;;;;;;;5.67;4.25;;;;;;;22.53;75.65;99561.67;1713375;83;20891;-69
2021/08/10 06:52:39;;;;;;;4.83;3.87;;;;;;;22.67;75.14;99558.91;1713631;83;21418;-67
2021/08/10 06:55:07;;;;;;;4.95;3.98;;;;;;;22.77;73.81;99563.52;1713816;83;21106;-67
2021/08/10 06:57:34;;;;;;;5.42;4.12;;;;;;;22.85;73.69;99562.38;1713438;83;20965;-67
2021/08/10 07:00:01;;;;;;;5.10;4.30;;;;;;;22.92;73.01;99557.58;1713543;83;20922;-68
2021/08/10 07:02:28;;;;;;;7.97;4.03;;;;;;;22.98;72.07;99557.98;1713528;83;20939;-67
2021/08/10 07:04:55;;;;;;;7.90;4.40;;;;;;;23.03;71.88;99559.80;1713484;83;20891;-68
2021/08/10 07:07:22;;;;;;;8.75;4.10;;;;;;;23.12;72.36;99566.36;1713510;83;21202;-67
2021/08/10 07:09:49;;;;;;;5.85;4.30;;;;;;;23.23;72.33;99557.97;1713385;83;20915;-67
2021/08/10 07:12:18;;;;;;;5.15;4.33;;;;;;;23.34;71.68;99556.77;1713740;83;21512;-68
2021/08/10 07:14:45;;;;;;;5.80;4.15;;;;;;;23.41;70.52;99550.36;1713364;83;21091;-68
2021/08/10 07:17:12;;;;;;;6.80;4.15;;;;;;;23.48;70.23;99550.34;1713591;83;20930;-68
2021/08/10 07:19:39;;;;;;;9.00;4.40;;;;;;;23.55;70.11;99550.97;1713431;83;21459;-69
2021/08/10 07:22:08;;;;;;;4.75;3.90;;;;;;;23.65;70.48;99541.14;1712769;83;20895;-68
2021/08/10 07:24:35;;;;;;;5.47;4.03;;;;;;;23.74;69.63;99551.91;1713538;83;21028;-69
2021/08/10 07:27:01;;;;;;;6.50;4.00;;;;;;;23.86;70.20;99556.28;1713349;83;20903;-69
2021/08/10 07:29:30;;;;;;;5.22;3.62;;;;;;;24.00;68.59;99555.63;1713422;83;20915;-69
2021/08/10 07:31:57;;;;;;;6.37;3.75;;;;;;;24.09;66.96;99548.80;1713429;83;21137;-68
2021/08/10 07:34:25;;;;;;;5.00;3.80;;;;;;;24.14;67.22;99553.98;1713372;83;20978;-68
2021/08/10 07:36:53;;;;;;;8.83;3.85;;;;;;;24.23;66.78;99550.94;1713223;83;20847;-69
2021/08/10 07:39:20;;;;;;;6.28;3.83;;;;;;;24.30;67.00;99548.10;1713366;83;20930;-69
2021/08/10 07:41:47;;;;;;;5.45;3.83;;;;;;;24.41;66.70;99546.64;1713410;83;20930;-69
2021/08/10 07:44:14;;;;;;;6.92;3.62;;;;;;;24.50;65.95;99550.41;1713586;83;21128;-69
2021/08/10 07:46:43;;;;;;;3.87;3.33;;;;;;;24.56;66.21;99548.17;1713172;83;20851;-69
2021/08/10 07:49:12;;;;;;;5.25;3.90;;;;;;;24.64;65.11;99553.13;1710004;83;20955;-68
2021/08/10 07:51:39;;;;;;;4.20;3.80;;;;;;;24.72;65.78;99549.68;1689383;83;20978;-70
2021/08/10 07:54:05;;;;;;;5.08;3.58;;;;;;;24.89;66.42;99553.74;1681244;83;20936;-71
2021/08/10 07:56:33;;;;;;;6.35;3.98;;;;;;;25.02;64.60;99548.47;1691750;83;21114;-71
2021/08/10 07:58:59;;;;;;;4.28;3.67;;;;;;;25.15;64.35;99543.95;1680245;83;21015;-75
2021/08/10 08:01:26;;;;;;;4.72;4.00;;;;;;;25.28;63.13;99543.63;1700327;83;21479;-73
2021/08/10 08:03:53;;;;;;;5.05;3.75;;;;;;;25.47;63.91;99543.63;1695530;83;20945;-72
2021/08/10 08:06:20;;;;;;;5.08;3.52;;;;;;;25.87;63.75;99539.84;1712745;83;20883;-72
2021/08/10 08:08:47;;;;;;;6.45;3.50;;;;;;;26.26;61.09;99539.34;1713077;83;21095;-71
2021/08/10 08:11:16;;;;;;;5.67;3.35;;;;;;;26.60;60.88;99542.09;1702693;84;21686;-72
2021/08/10 08:13:42;;;;;;;3.47;2.50;;;;;;;27.01;60.17;99534.06;1701645;83;21518;-72
2021/08/10 08:16:09;;;;;;;5.22;3.05;;;;;;;27.36;56.06;99526.39;1708399;83;20995;-73
2021/08/10 08:18:37;;;;;;;8.50;3.12;;;;;;;27.48;55.19;99522.95;1716227;83;21006;-72
2021/08/10 08:21:05;;;;;;;5.87;2.95;;;;;;;27.53;55.74;99520.25;1716350;83;21550;-73
2021/08/10 08:23:34;;;;;;;3.60;2.70;;;;;;;27.71;55.77;99522.16;1715982;83;20947;-71
2021/08/10 08:26:02;;;;;;;4.30;3.30;;;;;;;27.93;53.46;99526.12;1723840;81;21073;-71
2021/08/10 08:28:34;;;;;;;3.60;2.98;;;;;;;28.10;53.49;99534.66;1724944;83;21524;-73
2021/08/10 08:31:01;;;;;;;3.30;3.00;;;;;;;28.29;53.66;99526.02;1723555;83;21022;-71
2021/08/10 08:33:31;;;;;;;4.60;3.15;;;;;;;28.54;52.62;99531.89;1726566;83;21228;-70
2021/08/10 08:35:57;;;;;;;3.75;3.00;;;;;;;28.81;52.49;99531.67;1727818;83;21007;-69
2021/08/10 08:38:24;;;;;;;3.00;2.70;;;;;;;28.98;52.40;99536.72;1723356;83;21013;-70
2021/08/10 08:40:52;;;;;;;10.32;2.92;;;;;;;29.11;51.10;99527.10;1723324;83;21066;-69
2021/08/10 08:43:22;;;;;;;3.25;3.00;;;;;;;29.20;51.80;99530.72;1727814;83;21081;-69
2021/08/10 08:45:50;;;;;;;5.37;2.98;;;;;;;29.36;50.77;99529.30;1723202;83;22509;-70
2021/08/10 08:48:16;;;;;;;4.03;3.02;;;;;;;29.56;51.82;99528.56;1718921;82;20903;-69
2021/08/10 08:50:46;;;;;;;4.33;3.45;;;;;;;29.80;51.14;99524.88;1723312;82;21603;-69
2021/08/10 08:53:14;;;;;;;5.85;3.27;;;;;;;30.09;48.85;99529.73;1727516;83;20955;-68
2021/08/10 08:55:44;;;;;;;9.38;4.00;;;;;;;30.29;48.24;99533.80;1720964;83;21512;-69
2021/08/10 08:58:14;;;;;;;4.03;3.58;;;;;;;30.39;48.42;99532.06;1715404;81;21838;-69
2021/08/10 09:00:42;;;;;;;7.62;3.90;;;;;;;30.43;47.22;99532.75;1727980;83;20885;-68
2021/08/10 09:03:09;;;;;;;3.92;3.47;;;;;;;30.45;48.90;99530.27;1715933;81;20942;-69
2021/08/10 09:05:40;;;;;;;5.37;3.27;;;;;;;30.47;48.59;99526.36;1706987;83;21525;-72
2021/08/10 09:08:29;;;;;;;6.50;3.72;;;;;;;30.53;48.51;99528.80;1661180;85;20986;-72
2021/08/10 09:11:04;;;;;;;3.50;3.00;;;;;;;30.68;49.00;99522.69;1688289;84;20975;-69
2021/08/10 09:13:33;;;;;;;4.10;2.95;;;;;;;30.78;47.06;99517.31;1660717;85;21597;-71
2021/08/10 09:16:02;;;;;;;5.72;3.17;;;;;;;30.87;47.05;99524.50;1706293;83;21415;-71
2021/08/10 09:18:28;;;;;;;4.72;3.58;;;;;;;30.97;47.35;99521.16;1688444;83;20896;-71
2021/08/10 09:21:16;;;;;;;4.60;3.45;;;;;;;30.90;44.39;99524.22;1675675;83;21467;-71
2021/08/10 09:23:53;;;;;;;3.35;3.05;;;;;;;30.59;45.27;99519.15;1710885;83;23283;-70
2021/08/10 09:26:23;;;;;;;3.52;3.22;;;;;;;30.39;46.31;99519.95;1713395;83;20883;-71
2021/08/10 09:28:57;;;;;;;3.35;3.05;;;;;;;30.43;46.55;99503.02;1711923;83;20875;-72
2021/08/10 09:31:44;;;;;;;4.97;3.52;;;;;;;30.55;45.62;99497.19;1703986;83;20962;-70
2021/08/10 09:34:23;;;;;;;3.67;3.20;;;;;;;30.59;46.01;99499.94;1712387;83;20883;-70
2021/08/10 09:36:51;;;;;;;4.00;3.60;;;;;;;30.73;46.17;99496.63;1713324;83;21132;-71
2021/08/10 09:39:35;;;;;;;7.08;3.50;;;;;;;30.99;45.54;99495.98;1713204;83;21620;-70
2021/08/10 09:42:11;;;;;;;3.98;3.52;;;;;;;31.20;45.04;99483.92;1712033;83;20990;-70
2021/08/10 09:45:06;;;;;;;10.90;4.17;;;;;;;31.28;44.42;99483.84;1688706;83;21387;-71
2021/08/10 09:47:38;;;;;;;14.40;3.63;;;;;;;31.34;44.50;99489.09;1675813;83;20924;-70
2021/08/10 09:50:23;;;;;;;3.98;3.60;;;;;;;31.44;44.43;99492.81;1712735;83;21786;-70
2021/08/10 09:52:49;;;;;;;5.72;4.08;;;;;;;31.51;44.47;99491.14;1713369;83;20918;-72
2021/08/10 09:55:16;;;;;;;6.80;4.30;;;;;;;31.56;43.54;99486.30;1713382;83;21525;-72
2021/08/10 09:58:02;;;;;;;5.45;4.00;;;;;;;31.53;44.12;99486.59;1713286;83;20977;-72
2021/08/10 10:00:41;;;;;;;3.75;3.40;;;;;;;31.66;43.51;99482.91;1713329;83;21505;-72
2021/08/10 10:03:23;;;;;;;7.00;3.85;;;;;;;31.80;42.79;99473.88;1704237;83;21140;-71
2021/08/10 10:05:53;;;;;;;6.87;6.12;;;;;;;31.79;43.80;99480.81;1710928;83;21391;-70
2021/08/10 10:08:24;;;;;;;6.17;4.50;;;;;;;31.90;43.21;99481.84;1709773;83;20887;-72
2021/08/10 10:10:55;;;;;;;;;;;;;;;31.81;42.46;99472.00;1692047;84;21458;-71
2021/08/10 10:13:23;;;;;;;5.22;4.72;;;;;;;31.38;42.66;99477.63;1675220;83;20473;-70
2021/08/10 10:15:51;;;;;;;4.10;3.70;;;;;;;30.91;43.50;99483.30;1654769;85;21192;-68
2021/08/10 10:18:19;;;;;;;7.55;3.70;;;;;;;30.85;44.90;99475.36;1660409;85;20911;-69
2021/08/10 10:20:48;;;;;;;11.03;3.67;;;;;;;31.08;44.19;99472.78;1657570;86;21531;-69
2021/08/10 10:23:25;;;;;;;7.67;4.50;;;;;;;31.46;44.69;99470.45;1662296;86;21522;-70
2021/08/10 10:25:54;;;;;;;8.43;4.20;;;;;;;31.55;43.48;99469.11;1656019;86;20974;-70
2021/08/10 10:28:22;;;;;;;3.90;3.60;;;;;;;31.52;43.56;99468.61;1654241;85;21506;-70
2021/08/10 10:30:49;;;;;;;5.83;3.50;;;;;;;31.60;43.35;99465.69;1654398;86;21654;-72
2021/08/10 10:33:16;;;;;;;3.62;3.12;;;;;;;31.72;43.07;99468.33;1688258;85;21521;-72
2021/08/10 10:35:43;;;;;;;5.22;3.85;;;;;;;31.95;41.36;99462.16;1688228;85;21517;-71
2021/08/10 10:38:09;;;;;;;8.45;3.60;;;;;;;31.98;41.34;99466.91;1687495;85;20944;-72
2021/08/10 10:40:36;;;;;;;15.35;6.55;;;;;;;31.99;41.72;99457.14;1660533;84;23314;-71
2021/08/10 10:43:05;;;;;;;13.40;5.25;;;;;;;32.01;42.74;99465.98;1659221;86;21565;-71
2021/08/10 10:45:38;;;;;;;6.30;3.27;;;;;;;32.17;42.49;99460.09;1659044;86;20871;-72
2021/08/10 10:48:31;;;;;;;6.50;4.00;;;;;;;32.47;41.98;99459.13;1659005;86;20907;-71
2021/08/10 10:51:08;;;;;;;14.35;8.58;;;;;;;32.67;40.87;99460.95;1659124;86;21015;-71
2021/08/10 10:53:35;;;;;;;7.42;5.87;;;;;;;32.43;40.66;99462.11;1658505;86;21143;-71
2021/08/10 10:56:03;;;;;;;23.45;5.87;;;;;;;32.06;40.41;99462.55;1658310;86;20868;-72
2021/08/10 10:58:33;;;;;;;3.77;3.12;;;;;;;31.84;41.04;99455.47;1631982;86;20915;-72
2021/08/10 11:01:16;;;;;;;5.60;3.72;;;;;;;31.85;41.03;99459.09;1658639;86;20951;-71
2021/08/10 11:04:08;;;;;;;7.53;3.45;;;;;;;31.74;42.25;99453.84;1658343;86;20931;-72
2021/08/10 11:06:43;;;;;;;7.35;5.12;;;;;;;31.43;43.26;99454.36;1658634;86;21077;-71
2021/08/10 11:09:35;;;;;;;7.05;4.50;;;;;;;31.10;42.95;99455.31;1658655;86;38215;-72
2021/08/10 11:12:05;;;;;;;17.05;12.10;;;;;;;31.08;43.82;99450.72;1649978;85;20895;-72
2021/08/10 11:14:43;;;;;;;31.70;21.10;;;;;;;31.35;43.79;99448.14;1688044;85;20915;-73
2021/08/10 11:17:13;;;;;;;6.22;4.12;;;;;;;31.64;42.30;99446.48;1697786;83;20876;-73
2021/08/10 11:19:45;;;;;;;4.20;3.80;;;;;;;31.89;42.28;99448.41;1710061;84;21076;-73
2021/08/10 11:22:20;;;;;;;5.67;3.15;;;;;;;32.14;41.45;99450.29;1710115;83;20888;-73
2021/08/10 11:24:56;;;;;;;8.43;4.78;;;;;;;31.99;40.50;99447.83;1709906;84;20947;-70
2021/08/10 11:27:46;;;;;;;7.15;4.08;;;;;;;31.88;42.21;99451.08;1710141;84;20904;-72
2021/08/10 11:30:27;;;;;;;6.40;4.67;;;;;;;31.90;42.28;99448.56;1709936;84;20887;-71
2021/08/10 11:32:54;;;;;;;3.67;2.55;;;;;;;32.22;40.68;99445.13;1709857;84;21171;-71
2021/08/10 11:35:32;;;;;;;26.85;4.75;;;;;;;32.59;41.02;99444.03;1709739;82;20940;-70
2021/08/10 11:38:17;;;;;;;2.90;2.60;;;;;;;32.89;40.29;99437.36;1709797;84;20983;-71
2021/08/10 11:40:58;;;;;;;3.30;2.87;;;;;;;33.14;39.14;99425.67;1710080;83;20911;-71
2021/08/10 11:43:42;;;;;;;5.58;2.92;;;;;;;32.97;37.70;99434.34;1709870;84;20967;-71